createdAt,value
2023-04-06T00:02:48.130Z,69.10
2023-04-06T00:07:51.994Z,69.20
2023-04-06T00:12:58.653Z,69.90
2023-04-06T00:18:02.417Z,69.20
2023-04-06T00:23:06.358Z,69.20
2023-04-06T00:28:11.369Z,69.20
2023-04-06T00:33:14.995Z,69.20
2023-04-06T00:38:18.897Z,69.20
2023-04-06T00:43:25.390Z,69.20
2023-04-06T00:48:29.055Z,69.30
2023-04-06T00:53:32.584Z,69.30
2023-04-06T00:58:39.932Z,69.30
2023-04-06T01:03:48.515Z,69.30
2023-04-06T01:08:53.720Z,69.30
2023-04-06T01:14:00.949Z,69.30
2023-04-06T01:19:13.506Z,69.30
2023-04-06T01:24:24.224Z,69.40
2023-04-06T01:29:39.060Z,69.30
2023-04-06T01:34:45.798Z,69.30
2023-04-06T01:39:51.122Z,69.30
2023-04-06T01:45:04.720Z,69.40
2023-04-06T01:50:09.974Z,69.30
2023-04-06T01:55:20.499Z,69.30
2023-04-06T02:00:47.113Z,69.40
2023-04-06T02:05:51.670Z,69.30
2023-04-06T02:11:03.589Z,69.30
2023-04-06T02:16:12.267Z,69.40
2023-04-06T02:21:20.914Z,69.30
2023-04-06T02:26:25.969Z,69.30
2023-04-06T02:31:29.723Z,69.30
2023-04-06T02:36:33.722Z,69.40
2023-04-06T02:41:38.798Z,69.30
2023-04-06T02:46:43.498Z,69.30
2023-04-06T02:51:47.227Z,69.30
2023-04-06T02:57:03.227Z,69.30
2023-04-06T03:02:16.209Z,69.30
2023-04-06T03:07:20.795Z,69.30
2023-04-06T03:12:25.913Z,69.30
2023-04-06T03:17:53.022Z,69.30
2023-04-06T03:23:10.055Z,70.00
2023-04-06T03:28:18.999Z,69.30
2023-04-06T03:33:34.934Z,69.30
2023-04-06T03:38:40.849Z,69.30
2023-04-06T03:43:50.931Z,69.40
2023-04-06T03:48:55.210Z,69.30
2023-04-06T03:54:00.950Z,69.30
2023-04-06T03:59:06.537Z,69.30
2023-04-06T04:04:10.405Z,69.30
2023-04-06T04:09:14.006Z,69.30
2023-04-06T04:14:18.913Z,69.30
2023-04-06T04:19:22.623Z,69.30
2023-04-06T04:24:26.284Z,69.30
2023-04-06T04:29:31.471Z,69.30
2023-04-06T04:34:41.160Z,69.30
2023-04-06T04:39:48.841Z,69.30
2023-04-06T04:44:54.361Z,69.30
2023-04-06T04:50:11.420Z,69.30
2023-04-06T04:55:19.668Z,69.30
2023-04-06T05:00:28.047Z,69.30
2023-04-06T05:05:35.101Z,69.30
2023-04-06T05:10:39.828Z,69.30
2023-04-06T05:15:45.508Z,69.30
2023-04-06T05:20:58.872Z,69.30
2023-04-06T05:26:16.972Z,69.40
2023-04-06T05:31:23.064Z,69.30
2023-04-06T05:36:28.412Z,69.40
2023-04-06T05:41:34.050Z,69.40
2023-04-06T05:46:39.644Z,69.40
2023-04-06T05:51:45.385Z,69.30
2023-04-06T05:56:49.192Z,69.20
2023-04-06T06:01:54.191Z,69.40
2023-04-06T06:06:58.849Z,69.20
2023-04-06T06:12:14.760Z,69.30
2023-04-06T06:17:20.375Z,69.30
2023-04-06T06:22:25.248Z,69.30
2023-04-06T06:27:28.987Z,69.20
2023-04-06T06:32:35.422Z,69.30
2023-04-06T06:37:39.164Z,69.30
2023-04-06T06:42:45.009Z,69.30
2023-04-06T06:48:10.357Z,69.30
2023-04-06T06:53:17.585Z,69.30
2023-04-06T06:58:21.843Z,69.30
2023-04-06T07:03:27.761Z,69.30
2023-04-06T07:08:31.960Z,69.20
2023-04-06T07:13:35.647Z,69.20
2023-04-06T07:18:41.500Z,69.20
2023-04-06T07:23:45.572Z,69.30
2023-04-06T07:28:49.179Z,69.30
2023-04-06T07:33:54.337Z,69.30
2023-04-06T07:38:57.934Z,69.30
2023-04-06T07:44:01.575Z,69.30
2023-04-06T07:49:07.302Z,69.30
2023-04-06T07:54:12.532Z,69.30
2023-04-06T07:59:16.221Z,69.20
2023-04-06T08:04:22.435Z,69.30
2023-04-06T08:09:26.058Z,69.10
2023-04-06T08:14:29.632Z,69.30
2023-04-06T08:19:34.625Z,69.20
2023-04-06T08:24:38.261Z,69.10
2023-04-06T08:29:42.120Z,69.20
2023-04-06T08:34:47.015Z,69.10
2023-04-06T08:39:50.593Z,69.10
2023-04-06T08:44:54.571Z,69.30
2023-04-06T08:50:00.846Z,69.30
2023-04-06T08:55:04.646Z,69.30
2023-04-06T09:00:11.724Z,69.20
2023-04-06T09:05:16.968Z,69.30
2023-04-06T09:10:21.634Z,69.30
2023-04-06T09:15:25.333Z,69.10
2023-04-06T09:20:30.418Z,69.20
2023-04-06T09:25:34.282Z,69.20
2023-04-06T09:30:39.370Z,69.20
2023-04-06T09:35:52.245Z,69.10
2023-04-06T09:41:01.369Z,69.10
2023-04-06T09:46:07.020Z,69.20
2023-04-06T09:51:17.049Z,69.20
2023-04-06T09:56:27.753Z,69.10
2023-04-06T10:01:34.733Z,69.00
2023-04-06T10:06:40.966Z,69.10
2023-04-06T10:11:46.193Z,69.10
2023-04-06T10:16:51.845Z,69.80
2023-04-06T10:22:00.290Z,69.20
2023-04-06T10:27:05.707Z,69.20
2023-04-06T10:32:09.243Z,69.20
2023-04-06T10:37:19.980Z,69.20
2023-04-06T10:42:27.252Z,69.30
2023-04-06T10:47:41.762Z,69.30
2023-04-06T10:52:48.886Z,69.30
2023-04-06T10:57:52.420Z,69.20
2023-04-06T11:03:02.937Z,69.20
2023-04-06T11:08:08.145Z,69.30
2023-04-06T11:13:11.715Z,69.30
2023-04-06T11:18:19.934Z,69.20
2023-04-06T11:23:28.296Z,69.30
2023-04-06T11:28:32.279Z,69.30
2023-04-06T11:33:39.565Z,69.30
2023-04-06T11:38:45.330Z,69.20
2023-04-06T11:43:50.222Z,69.30
2023-04-06T11:48:53.786Z,69.30
2023-04-06T11:53:58.678Z,69.40
2023-04-06T11:59:02.239Z,69.40
2023-04-06T12:04:06.213Z,69.30
2023-04-06T12:09:11.149Z,70.10
2023-04-06T12:14:14.870Z,69.30
2023-04-06T12:19:18.359Z,69.30
2023-04-06T12:24:23.421Z,69.20
2023-04-06T12:29:27.338Z,69.20
2023-04-06T12:34:31.172Z,69.30
2023-04-06T12:39:36.171Z,69.30
2023-04-06T12:44:39.663Z,69.30
2023-04-06T12:49:43.885Z,69.20
2023-04-06T12:54:51.192Z,69.30
2023-04-06T12:59:55.179Z,69.30
2023-04-06T13:04:58.757Z,69.30
2023-04-06T13:10:03.672Z,69.20
2023-04-06T13:15:09.334Z,69.30
2023-04-06T13:20:12.952Z,69.30
2023-04-06T13:25:18.114Z,69.40
2023-04-06T13:30:21.720Z,69.30
2023-04-06T13:35:25.417Z,69.30
2023-04-06T13:40:31.209Z,69.30
2023-04-06T13:45:35.213Z,69.50
2023-04-06T13:50:38.803Z,69.50
2023-04-06T13:55:43.631Z,69.50
2023-04-06T14:00:47.280Z,69.40
2023-04-06T14:05:51.162Z,69.40
2023-04-06T14:10:56.312Z,69.50
2023-04-06T14:15:59.682Z,69.40
2023-04-06T14:21:03.394Z,69.30
2023-04-06T14:26:10.564Z,69.40
2023-04-06T14:31:18.005Z,69.40
2023-04-06T14:36:21.614Z,69.50
2023-04-06T14:41:27.151Z,69.30
2023-04-06T14:46:30.613Z,69.30
2023-04-06T14:51:36.187Z,69.40
2023-04-06T14:56:40.986Z,69.50
2023-04-06T15:01:44.567Z,69.50
2023-04-06T15:06:48.089Z,69.30
2023-04-06T15:11:52.877Z,69.30
2023-04-06T15:16:56.613Z,69.40
2023-04-06T15:22:00.942Z,69.40
2023-04-06T15:27:06.017Z,69.30
2023-04-06T15:32:09.665Z,69.40
2023-04-06T15:37:13.105Z,69.40
2023-04-06T15:42:17.849Z,69.40
2023-04-06T15:47:21.215Z,69.30
2023-04-06T15:52:24.615Z,69.30
2023-04-06T15:57:29.341Z,69.40
2023-04-06T16:02:32.910Z,69.40
2023-04-06T16:07:36.625Z,69.30
2023-04-06T16:12:42.497Z,69.20
2023-04-06T16:17:46.097Z,69.30
2023-04-06T16:22:50.836Z,69.40
2023-04-06T16:27:56.172Z,69.30
2023-04-06T16:32:59.677Z,69.10
2023-04-06T16:38:03.070Z,69.20
2023-04-06T16:43:07.925Z,69.40
2023-04-06T16:48:12.639Z,69.30
2023-04-06T16:53:16.793Z,69.20
2023-04-06T16:58:21.608Z,69.20
2023-04-06T17:03:25.495Z,69.30
2023-04-06T17:08:29.913Z,69.50
2023-04-06T17:13:34.697Z,69.40
2023-04-06T17:18:38.155Z,69.30
2023-04-06T17:23:42.130Z,69.30
2023-04-06T17:28:46.987Z,69.40
2023-04-06T17:33:50.447Z,69.30
2023-04-06T17:38:53.922Z,69.30
2023-04-06T17:43:58.640Z,69.30
2023-04-06T17:49:02.063Z,69.40
2023-04-06T17:54:05.674Z,69.40
2023-04-06T17:59:11.593Z,69.20
2023-04-06T18:04:15.074Z,69.30
2023-04-06T18:09:18.609Z,69.50
2023-04-06T18:14:23.449Z,69.50
2023-04-06T18:19:28.793Z,69.60
2023-04-06T18:24:41.182Z,69.50
2023-04-06T18:29:47.521Z,69.50
2023-04-06T18:34:50.992Z,69.50
2023-04-06T18:39:54.757Z,69.60
2023-04-06T18:44:59.557Z,69.70
2023-04-06T18:50:03.099Z,69.60
2023-04-06T18:55:09.122Z,69.50
2023-04-06T19:00:16.830Z,69.60
2023-04-06T19:05:22.180Z,69.60
2023-04-06T19:10:25.819Z,69.50
2023-04-06T19:15:30.694Z,69.40
2023-04-06T19:20:35.649Z,69.50
2023-04-06T19:25:39.935Z,69.60
2023-04-06T19:30:45.423Z,69.70
2023-04-06T19:35:48.896Z,69.40
2023-04-06T19:40:52.350Z,69.50
2023-04-06T19:45:57.291Z,69.50
2023-04-06T19:51:00.840Z,69.60
2023-04-06T19:56:04.614Z,69.40
2023-04-06T20:01:09.581Z,69.50
2023-04-06T20:06:13.112Z,69.50
2023-04-06T20:11:18.001Z,69.60
2023-04-06T20:16:23.178Z,69.60
2023-04-06T20:21:27.302Z,69.40
2023-04-06T20:26:30.898Z,69.50
2023-04-06T20:31:35.976Z,69.60
2023-04-06T20:36:40.069Z,69.60
2023-04-06T20:41:43.636Z,69.40
2023-04-06T20:46:49.824Z,69.50
2023-04-06T20:51:53.519Z,69.60
2023-04-06T20:56:59.546Z,69.60
2023-04-06T21:02:04.551Z,69.50
2023-04-06T21:07:08.857Z,69.50
2023-04-06T21:12:12.270Z,69.60
2023-04-06T21:17:17.127Z,69.60
2023-04-06T21:22:20.532Z,69.50
2023-04-06T21:27:24.523Z,69.50
2023-04-06T21:32:29.267Z,69.60
2023-04-06T21:37:32.683Z,69.60
2023-04-06T21:42:36.143Z,69.60
2023-04-06T21:47:41.647Z,69.50
2023-04-06T21:52:45.213Z,69.60
2023-04-06T21:57:48.667Z,69.70
2023-04-06T22:02:53.729Z,69.60
2023-04-06T22:07:57.237Z,69.50
2023-04-06T22:13:00.720Z,69.50
2023-04-06T22:18:05.856Z,69.60
2023-04-06T22:23:09.301Z,69.80
2023-04-06T22:28:12.709Z,69.80
2023-04-06T22:33:17.529Z,69.60
2023-04-06T22:38:20.996Z,69.60
2023-04-06T22:43:24.557Z,69.70
2023-04-06T22:48:29.356Z,69.80
2023-04-06T22:53:32.868Z,69.60
2023-04-06T22:58:36.838Z,69.60
2023-04-06T23:03:41.799Z,69.60
2023-04-06T23:08:47.088Z,69.70
2023-04-06T23:13:50.513Z,69.90
2023-04-06T23:18:55.752Z,69.80
2023-04-06T23:23:59.598Z,69.70
2023-04-06T23:29:03.239Z,69.70
2023-04-06T23:34:08.231Z,69.80
2023-04-06T23:39:11.679Z,69.80
2023-04-06T23:44:15.364Z,69.60
2023-04-06T23:49:20.132Z,69.60
2023-04-06T23:54:23.587Z,69.70
2023-04-06T23:59:27.102Z,69.80
